Terminal Aerodrome Forecast
Issued by NWS

Home | Current Version | Previous Version | Text Only | Print | Product List | Glossary On
Versions: 1 2 3 4 5 6 7 8 9 10 11 12 13 14 15 16 17 18 19 20 21 22 23 24 25 26 27 28 29 30 31 32 33 34
000
FTAK31 PAFC 181304 AAA
TAFAEN
TAF AMD
PAEN 181304Z 1813/1912 17015KT P6SM VCSH OVC025
     FM181500 19015G22KT 6SM -SHRA BR FEW015 OVC025
     FM182300 20010G18KT P6SM -SHRA BKN025 BKN035
     FM190600 19010KT P6SM OVC100=

USA.gov is the U.S. government's official web portal to all federal, state and local government web resources and services.